Wetterdaten: Woche 24.07.06 - 30.07.06 (KW30)
Datum Zeit Temperatur Luftfeuchte Luftdruck Niederschlag Wind Richtung Sonnenschein UV-Strahlung Solar Taupunkt Windchill Windben
24.07.2006 00:00 22.2 C 73 % 1018.8 hPa 0.0 l/m 0.0 km/h (0 Bft) O-SO 0.00 h 0.0 UV-I 0 W/m 17.2 C 22.2 C 0.6 km/h (0 Bft)
24.07.2006 01:00 21.1 C 78 % 1018.7 hPa 0.0 l/m 0.6 km/h (0 Bft) O-SO 0.00 h 0.0 UV-I 0 W/m 17.2 C 21.1 C 1.4 km/h (1 Bft)
24.07.2006 02:00 20.2 C 81 % 1018.5 hPa 0.0 l/m 1.3 km/h (1 Bft) O 0.00 h 0.0 UV-I 0 W/m 16.7 C 20.2 C 2.4 km/h (1 Bft)
24.07.2006 03:00 19.4 C 83 % 1018.3 hPa 0.0 l/m 1.9 km/h (1 Bft) O 0.00 h 0.0 UV-I 0 W/m 16.4 C 19.4 C 3.1 km/h (1 Bft)
24.07.2006 04:00 18.3 C 86 % 1017.9 hPa 0.0 l/m 2.3 km/h (1 Bft) O-SO 0.00 h 0.0 UV-I 0 W/m 16.0 C 18.3 C 3.4 km/h (1 Bft)
24.07.2006 05:00 17.9 C 88 % 1018.1 hPa 0.0 l/m 1.0 km/h (0 Bft) O 0.00 h 0.0 UV-I 0 W/m 15.9 C 17.9 C 2.1 km/h (1 Bft)
24.07.2006 06:00 18.0 C 89 % 1018.2 hPa 0.0 l/m 0.2 km/h (0 Bft) NO 0.00 h 0.0 UV-I 19 W/m 16.2 C 18.0 C 0.9 km/h (0 Bft)
24.07.2006 07:00 19.0 C 87 % 1018.2 hPa 0.0 l/m 0.0 km/h (0 Bft) N 0.62 h 0.6 UV-I 123 W/m 16.7 C 19.0 C 0.3 km/h (0 Bft)
24.07.2006 08:00 21.5 C 77 % 1018.2 hPa 0.0 l/m 0.9 km/h (0 Bft) NO 0.98 h 1.2 UV-I 290 W/m 17.4 C 21.5 C 2.0 km/h (1 Bft)
24.07.2006 09:00 24.0 C 69 % 1018.0 hPa 0.0 l/m 1.9 km/h (1 Bft) W 1.00 h 2.6 UV-I 460 W/m 17.9 C 24.0 C 3.7 km/h (1 Bft)
24.07.2006 10:00 26.8 C 57 % 1018.0 hPa 0.0 l/m 3.4 km/h (1 Bft) N 1.00 h 4.4 UV-I 608 W/m 17.6 C 26.8 C 6.0 km/h (2 Bft)
24.07.2006 11:00 28.4 C 52 % 1017.9 hPa 0.0 l/m 4.9 km/h (1 Bft) O-SO 1.00 h 6.2 UV-I 722 W/m 17.6 C 28.4 C 8.1 km/h (2 Bft)
24.07.2006 12:00 29.8 C 43 % 1017.7 hPa 0.0 l/m 6.5 km/h (2 Bft) O-SO 1.00 h 7.6 UV-I 801 W/m 16.0 C 29.8 C 11.1 km/h (2 Bft)
24.07.2006 13:00 31.0 C 38 % 1017.3 hPa 0.0 l/m 6.9 km/h (2 Bft) O-SO 1.00 h 8.1 UV-I 831 W/m 15.0 C 31.0 C 11.4 km/h (2 Bft)
24.07.2006 14:00 31.6 C 35 % 1016.9 hPa 0.0 l/m 6.8 km/h (2 Bft) O-SO 1.00 h 7.5 UV-I 809 W/m 14.2 C 31.6 C 11.3 km/h (2 Bft)
24.07.2006 15:00 32.7 C 32 % 1016.3 hPa 0.0 l/m 5.0 km/h (1 Bft) O-SO 1.00 h 6.3 UV-I 771 W/m 13.8 C 32.7 C 8.8 km/h (2 Bft)
24.07.2006 16:00 32.7 C 31 % 1015.8 hPa 0.0 l/m 6.6 km/h (2 Bft) O-SO 1.00 h 4.4 UV-I 649 W/m 13.2 C 32.7 C 10.8 km/h (2 Bft)
24.07.2006 17:00 32.5 C 30 % 1015.4 hPa 0.0 l/m 6.9 km/h (2 Bft) O-SO 1.00 h 2.7 UV-I 503 W/m 12.6 C 32.5 C 10.2 km/h (2 Bft)
24.07.2006 18:00 32.1 C 30 % 1015.2 hPa 0.0 l/m 4.3 km/h (1 Bft) O-SO 0.60 h 1.3 UV-I 241 W/m 12.3 C 32.1 C 8.0 km/h (2 Bft)
24.07.2006 19:00 30.4 C 36 % 1015.3 hPa 0.0 l/m 1.5 km/h (1 Bft) O-SO 0.63 h 0.5 UV-I 129 W/m 13.4 C 30.4 C 4.6 km/h (1 Bft)
24.07.2006 20:00 29.1 C 41 % 1015.2 hPa 0.0 l/m 3.5 km/h (1 Bft) O-SO 0.38 h 0.0 UV-I 46 W/m 14.3 C 29.1 C 4.8 km/h (1 Bft)
24.07.2006 21:00 26.4 C 49 % 1015.8 hPa 0.0 l/m 2.2 km/h (1 Bft) O-SO 0.02 h 0.0 UV-I 7 W/m 14.8 C 26.4 C 3.3 km/h (1 Bft)
24.07.2006 22:00 24.0 C 58 % 1016.3 hPa 0.0 l/m 2.6 km/h (1 Bft) O-SO 0.00 h 0.0 UV-I 0 W/m 15.3 C 24.0 C 3.6 km/h (1 Bft)
24.07.2006 23:00 22.7 C 64 % 1016.4 hPa 0.0 l/m 1.8 km/h (1 Bft) O-SO 0.00 h 0.0 UV-I 0 W/m 15.6 C 22.7 C 2.7 km/h (1 Bft)
25.07.2006 00:00 21.9 C 67 % 1016.5 hPa 0.0 l/m 2.6 km/h (1 Bft) O-SO 0.00 h 0.0 UV-I 0 W/m 15.5 C 21.9 C 4.1 km/h (1 Bft)
25.07.2006 01:00 21.1 C 70 % 1016.3 hPa 0.0 l/m 2.5 km/h (1 Bft) O-SO 0.00 h 0.0 UV-I 0 W/m 15.4 C 21.1 C 3.8 km/h (1 Bft)
25.07.2006 02:00 20.3 C 73 % 1016.3 hPa 0.0 l/m 2.6 km/h (1 Bft) O-SO 0.00 h 0.0 UV-I 0 W/m 15.4 C 20.3 C 3.9 km/h (1 Bft)
25.07.2006 03:00 19.6 C 76 % 1016.3 hPa 0.0 l/m 1.0 km/h (0 Bft) O-SO 0.00 h 0.0 UV-I 0 W/m 15.2 C 19.6 C 2.1 km/h (1 Bft)
25.07.2006 04:00 18.8 C 79 % 1016.4 hPa 0.0 l/m 1.0 km/h (0 Bft) O-SO 0.00 h 0.0 UV-I 0 W/m 15.0 C 18.8 C 1.9 km/h (1 Bft)
25.07.2006 05:00 18.3 C 80 % 1016.3 hPa 0.0 l/m 1.2 km/h (1 Bft) O 0.00 h 0.0 UV-I 0 W/m 14.7 C 18.3 C 2.3 km/h (1 Bft)
25.07.2006 06:00 17.4 C 84 % 1016.6 hPa 0.0 l/m 1.4 km/h (1 Bft) O 0.02 h 0.0 UV-I 18 W/m 14.6 C 17.4 C 2.6 km/h (1 Bft)
25.07.2006 07:00 19.0 C 79 % 1016.9 hPa 0.0 l/m 0.3 km/h (0 Bft) O-SO 0.58 h 0.6 UV-I 118 W/m 15.3 C 19.0 C 0.7 km/h (0 Bft)
25.07.2006 08:00 21.5 C 71 % 1016.9 hPa 0.0 l/m 0.5 km/h (0 Bft) O-SO 1.00 h 1.2 UV-I 302 W/m 16.0 C 21.5 C 1.3 km/h (1 Bft)
25.07.2006 09:00 24.1 C 64 % 1016.9 hPa 0.0 l/m 1.8 km/h (1 Bft) W-NW 1.00 h 2.6 UV-I 466 W/m 16.7 C 24.1 C 3.2 km/h (1 Bft)
25.07.2006 10:00 27.2 C 52 % 1016.5 hPa 0.0 l/m 3.9 km/h (1 Bft) O-SO 1.00 h 4.5 UV-I 615 W/m 16.4 C 27.2 C 6.1 km/h (2 Bft)
25.07.2006 11:00 29.1 C 46 % 1016.3 hPa 0.0 l/m 6.4 km/h (2 Bft) O-SO 1.00 h 6.3 UV-I 732 W/m 16.1 C 29.1 C 9.8 km/h (2 Bft)
25.07.2006 12:00 30.7 C 40 % 1015.8 hPa 0.0 l/m 3.9 km/h (1 Bft) O-SO 1.00 h 7.6 UV-I 804 W/m 15.5 C 30.7 C 6.6 km/h (2 Bft)
25.07.2006 13:00 32.1 C 31 % 1015.6 hPa 0.0 l/m 5.0 km/h (1 Bft) O-SO 1.00 h 8.1 UV-I 839 W/m 13.0 C 32.1 C 8.2 km/h (2 Bft)
25.07.2006 14:00 33.1 C 27 % 1015.0 hPa 0.0 l/m 5.6 km/h (1 Bft) O-SO 1.00 h 7.6 UV-I 820 W/m 11.5 C 33.1 C 8.9 km/h (2 Bft)
25.07.2006 15:00 34.1 C 23 % 1014.6 hPa 0.0 l/m 3.8 km/h (1 Bft) O-SO 1.00 h 6.3 UV-I 753 W/m 10.0 C 34.1 C 6.5 km/h (2 Bft)
25.07.2006 16:00 34.4 C 21 % 1014.1 hPa 0.0 l/m 4.9 km/h (1 Bft) O-SO 1.00 h 4.5 UV-I 646 W/m 8.9 C 34.4 C 8.4 km/h (2 Bft)
25.07.2006 17:00 34.1 C 22 % 1013.8 hPa 0.0 l/m 5.1 km/h (1 Bft) O-SO 1.00 h 2.7 UV-I 495 W/m 9.3 C 34.1 C 8.0 km/h (2 Bft)
25.07.2006 18:00 33.7 C 23 % 1013.7 hPa 0.0 l/m 4.7 km/h (1 Bft) O-SO 1.00 h 1.3 UV-I 331 W/m 9.9 C 33.7 C 7.2 km/h (2 Bft)
25.07.2006 19:00 32.6 C 27 % 1013.6 hPa 0.0 l/m 3.3 km/h (1 Bft) O-SO 0.58 h 0.6 UV-I 125 W/m 10.8 C 32.6 C 5.3 km/h (1 Bft)
25.07.2006 20:00 29.7 C 34 % 1014.0 hPa 0.0 l/m 4.7 km/h (1 Bft) O-SO 0.00 h 0.0 UV-I 21 W/m 12.2 C 29.7 C 6.1 km/h (2 Bft)
25.07.2006 21:00 26.9 C 45 % 1014.4 hPa 0.0 l/m 1.6 km/h (1 Bft) O 0.00 h 0.0 UV-I 5 W/m 14.1 C 26.9 C 2.7 km/h (1 Bft)
25.07.2006 22:00 25.5 C 51 % 1015.0 hPa 0.0 l/m 0.9 km/h (0 Bft) O-SO 0.00 h 0.0 UV-I 0 W/m 14.7 C 25.5 C 1.9 km/h (1 Bft)
25.07.2006 23:00 24.0 C 55 % 1015.1 hPa 0.0 l/m 3.5 km/h (1 Bft) O-SO 0.00 h 0.0 UV-I 0 W/m 14.5 C 24.0 C 4.9 km/h (1 Bft)
26.07.2006 00:00 22.4 C 61 % 1015.3 hPa 0.0 l/m 3.9 km/h (1 Bft) O-SO 0.00 h 0.0 UV-I 0 W/m 14.4 C 22.4 C 4.9 km/h (1 Bft)
26.07.2006 01:00 21.7 C 63 % 1015.5 hPa 0.0 l/m 3.5 km/h (1 Bft) O-SO 0.00 h 0.0 UV-I 0 W/m 14.3 C 21.7 C 4.9 km/h (1 Bft)
26.07.2006 02:00 20.8 C 67 % 1015.2 hPa 0.0 l/m 1.8 km/h (1 Bft) SO 0.00 h 0.0 UV-I 0 W/m 14.4 C 20.8 C 2.9 km/h (1 Bft)
26.07.2006 03:00 19.8 C 71 % 1015.4 hPa 0.0 l/m 3.3 km/h (1 Bft) O-SO 0.00 h 0.0 UV-I 0 W/m 14.5 C 19.8 C 4.7 km/h (1 Bft)
26.07.2006 04:00 19.3 C 74 % 1015.5 hPa 0.0 l/m 1.5 km/h (1 Bft) O-SO 0.00 h 0.0 UV-I 0 W/m 14.5 C 19.3 C 2.5 km/h (1 Bft)
26.07.2006 05:00 18.7 C 77 % 1015.6 hPa 0.0 l/m 0.5 km/h (0 Bft) O-SO 0.00 h 0.0 UV-I 0 W/m 14.7 C 18.7 C 0.9 km/h (0 Bft)
26.07.2006 06:00 18.5 C 79 % 1015.7 hPa 0.0 l/m 1.6 km/h (1 Bft) O-SO 0.17 h 0.0 UV-I 29 W/m 14.7 C 18.5 C 2.5 km/h (1 Bft)
26.07.2006 07:00 19.9 C 76 % 1016.1 hPa 0.0 l/m 0.1 km/h (0 Bft) O-SO 0.48 h 0.6 UV-I 124 W/m 15.5 C 19.9 C 0.5 km/h (0 Bft)
26.07.2006 08:00 22.1 C 69 % 1016.4 hPa 0.0 l/m 0.7 km/h (0 Bft) W-SW 0.88 h 1.1 UV-I 302 W/m 16.1 C 22.1 C 1.7 km/h (1 Bft)
26.07.2006 09:00 24.5 C 62 % 1016.7 hPa 0.0 l/m 1.8 km/h (1 Bft) W 0.57 h 2.0 UV-I 339 W/m 16.6 C 24.5 C 3.3 km/h (1 Bft)
26.07.2006 10:00 26.4 C 57 % 1016.8 hPa 0.0 l/m 1.8 km/h (1 Bft) W-NW 0.82 h 3.4 UV-I 487 W/m 17.1 C 26.4 C 3.7 km/h (1 Bft)
26.07.2006 11:00 27.0 C 52 % 1017.2 hPa 0.0 l/m 8.1 km/h (2 Bft) W-NW 0.35 h 2.7 UV-I 309 W/m 16.2 C 27.0 C 12.6 km/h (3 Bft)
26.07.2006 12:00 26.5 C 54 % 1017.6 hPa 0.0 l/m 3.2 km/h (1 Bft) W 0.03 h 2.9 UV-I 279 W/m 16.3 C 26.5 C 5.6 km/h (1 Bft)
26.07.2006 13:00 27.9 C 50 % 1017.5 hPa 0.0 l/m 6.1 km/h (2 Bft) S 0.60 h 4.7 UV-I 478 W/m 16.6 C 27.9 C 11.8 km/h (2 Bft)
26.07.2006 14:00 27.8 C 52 % 1017.3 hPa 0.0 l/m 5.5 km/h (1 Bft) S 0.62 h 4.4 UV-I 456 W/m 16.9 C 27.8 C 11.3 km/h (2 Bft)
26.07.2006 15:00 29.2 C 44 % 1016.6 hPa 0.0 l/m 6.3 km/h (2 Bft) S-SO 1.00 h 5.1 UV-I 619 W/m 15.6 C 29.2 C 11.6 km/h (2 Bft)
26.07.2006 16:00 30.2 C 41 % 1016.3 hPa 0.0 l/m 3.1 km/h (1 Bft) W 0.95 h 3.6 UV-I 511 W/m 15.3 C 30.2 C 5.8 km/h (2 Bft)
26.07.2006 17:00 31.4 C 38 % 1015.5 hPa 0.0 l/m 4.5 km/h (1 Bft) W-SW 0.85 h 2.4 UV-I 458 W/m 15.4 C 31.4 C 8.2 km/h (2 Bft)
26.07.2006 18:00 30.1 C 39 % 1015.2 hPa 0.0 l/m 4.4 km/h (1 Bft) S-SO 0.57 h 1.1 UV-I 234 W/m 14.7 C 30.1 C 8.3 km/h (2 Bft)
26.07.2006 19:00 29.2 C 38 % 1015.6 hPa 0.0 l/m 3.6 km/h (1 Bft) S-SO 0.43 h 0.5 UV-I 123 W/m 13.5 C 29.2 C 6.6 km/h (2 Bft)
26.07.2006 20:00 27.6 C 43 % 1015.6 hPa 0.0 l/m 4.0 km/h (1 Bft) O-SO 0.28 h 0.0 UV-I 33 W/m 13.7 C 27.6 C 5.8 km/h (2 Bft)
26.07.2006 21:00 25.4 C 50 % 1015.5 hPa 0.0 l/m 5.0 km/h (1 Bft) O-SO 0.00 h 0.0 UV-I 7 W/m 14.2 C 25.4 C 6.6 km/h (2 Bft)
26.07.2006 22:00 23.2 C 60 % 1015.8 hPa 0.0 l/m 3.8 km/h (1 Bft) O-SO 0.00 h 0.0 UV-I 0 W/m 15.0 C 23.2 C 5.1 km/h (1 Bft)
26.07.2006 23:00 21.6 C 67 % 1016.4 hPa 0.0 l/m 2.8 km/h (1 Bft) O-SO 0.00 h 0.0 UV-I 0 W/m 15.2 C 21.6 C 4.0 km/h (1 Bft)
27.07.2006 00:00 20.6 C 70 % 1016.6 hPa 0.0 l/m 2.8 km/h (1 Bft) O-SO 0.00 h 0.0 UV-I 0 W/m 14.8 C 20.6 C 4.4 km/h (1 Bft)
27.07.2006 01:00 19.5 C 75 % 1016.6 hPa 0.0 l/m 3.0 km/h (1 Bft) O-SO 0.00 h 0.0 UV-I 0 W/m 14.9 C 19.5 C 4.1 km/h (1 Bft)
27.07.2006 02:00 19.0 C 77 % 1016.2 hPa 0.0 l/m 3.7 km/h (1 Bft) O-SO 0.00 h 0.0 UV-I 0 W/m 14.8 C 19.0 C 4.9 km/h (1 Bft)
27.07.2006 03:00 18.7 C 78 % 1015.9 hPa 0.0 l/m 1.2 km/h (1 Bft) O-SO 0.00 h 0.0 UV-I 0 W/m 14.9 C 18.7 C 2.1 km/h (1 Bft)
27.07.2006 04:00 17.9 C 82 % 1015.5 hPa 0.0 l/m 2.2 km/h (1 Bft) O-SO 0.00 h 0.0 UV-I 0 W/m 14.8 C 17.9 C 3.0 km/h (1 Bft)
27.07.2006 05:00 17.4 C 84 % 1015.6 hPa 0.0 l/m 2.4 km/h (1 Bft) O-SO 0.00 h 0.0 UV-I 0 W/m 14.7 C 17.4 C 3.9 km/h (1 Bft)
27.07.2006 06:00 17.7 C 84 % 1016.2 hPa 0.0 l/m 2.2 km/h (1 Bft) O-SO 0.00 h 0.0 UV-I 19 W/m 15.0 C 17.7 C 3.3 km/h (1 Bft)
27.07.2006 07:00 18.7 C 83 % 1016.1 hPa 0.0 l/m 0.2 km/h (0 Bft) O-SO 0.53 h 0.6 UV-I 104 W/m 15.8 C 18.7 C 0.3 km/h (0 Bft)
27.07.2006 08:00 21.0 C 76 % 1016.4 hPa 0.0 l/m 0.7 km/h (0 Bft) O-SO 1.00 h 1.2 UV-I 271 W/m 16.5 C 21.0 C 1.6 km/h (1 Bft)
27.07.2006 09:00 23.7 C 67 % 1016.2 hPa 0.0 l/m 2.3 km/h (1 Bft) O-SO 1.00 h 2.5 UV-I 432 W/m 17.3 C 23.7 C 4.0 km/h (1 Bft)
27.07.2006 10:00 26.0 C 59 % 1016.0 hPa 0.0 l/m 2.8 km/h (1 Bft) O-SO 1.00 h 4.2 UV-I 578 W/m 17.4 C 26.0 C 4.9 km/h (1 Bft)
27.07.2006 11:00 28.2 C 52 % 1015.9 hPa 0.0 l/m 2.4 km/h (1 Bft) O-SO 1.00 h 6.0 UV-I 694 W/m 17.3 C 28.2 C 4.6 km/h (1 Bft)
27.07.2006 12:00 30.4 C 45 % 1015.5 hPa 0.0 l/m 2.8 km/h (1 Bft) O-SO 1.00 h 7.2 UV-I 770 W/m 16.9 C 30.4 C 4.8 km/h (1 Bft)
27.07.2006 13:00 32.1 C 38 % 1014.9 hPa 0.0 l/m 2.9 km/h (1 Bft) O-SO 1.00 h 7.7 UV-I 803 W/m 15.9 C 32.1 C 5.0 km/h (1 Bft)
27.07.2006 14:00 33.6 C 27 % 1014.2 hPa 0.0 l/m 5.3 km/h (1 Bft) O-SO 1.00 h 7.5 UV-I 814 W/m 11.8 C 33.6 C 8.7 km/h (2 Bft)
27.07.2006 15:00 33.8 C 28 % 1013.3 hPa 0.0 l/m 5.4 km/h (1 Bft) N-NW 0.52 h 5.1 UV-I 474 W/m 12.6 C 33.8 C 8.2 km/h (2 Bft)
27.07.2006 16:00 32.3 C 31 % 1012.9 hPa 0.0 l/m 3.2 km/h (1 Bft) N 0.27 h 2.7 UV-I 275 W/m 12.9 C 32.3 C 4.9 km/h (1 Bft)
27.07.2006 17:00 33.6 C 28 % 1012.5 hPa 0.0 l/m 5.5 km/h (1 Bft) O-SO 1.00 h 2.4 UV-I 551 W/m 12.6 C 33.6 C 7.5 km/h (2 Bft)
27.07.2006 18:00 33.4 C 28 % 1012.1 hPa 0.0 l/m 5.1 km/h (1 Bft) O-SO 1.00 h 1.3 UV-I 370 W/m 12.3 C 33.4 C 8.2 km/h (2 Bft)
27.07.2006 19:00 31.4 C 33 % 1012.1 hPa 0.0 l/m 5.9 km/h (2 Bft) N 0.18 h 0.6 UV-I 95 W/m 13.1 C 31.4 C 11.3 km/h (2 Bft)
27.07.2006 20:00 29.5 C 37 % 1012.6 hPa 0.0 l/m 1.4 km/h (1 Bft) N-NW 0.00 h 0.0 UV-I 12 W/m 13.1 C 29.5 C 3.1 km/h (1 Bft)
27.07.2006 21:00 25.9 C 54 % 1013.7 hPa 0.6 l/m 5.3 km/h (1 Bft) S 0.00 h 0.0 UV-I 0 W/m 15.7 C 25.9 C 11.0 km/h (2 Bft)
27.07.2006 22:00 21.1 C 85 % 1015.9 hPa 2.2 l/m 2.4 km/h (1 Bft) O-SO 0.00 h 0.0 UV-I 0 W/m 18.5 C 21.1 C 4.4 km/h (1 Bft)
27.07.2006 23:00 20.7 C 87 % 1015.3 hPa 0.0 l/m 4.8 km/h (1 Bft) O 0.00 h 0.0 UV-I 0 W/m 18.4 C 20.7 C 7.8 km/h (2 Bft)
28.07.2006 00:00 20.2 C 86 % 1014.8 hPa 0.0 l/m 5.6 km/h (1 Bft) O-SO 0.00 h 0.0 UV-I 0 W/m 17.8 C 20.2 C 8.4 km/h (2 Bft)
28.07.2006 01:00 19.5 C 88 % 1014.7 hPa 0.0 l/m 4.2 km/h (1 Bft) SO 0.00 h 0.0 UV-I 0 W/m 17.5 C 19.5 C 5.8 km/h (2 Bft)
28.07.2006 02:00 18.8 C 92 % 1013.8 hPa 0.0 l/m 4.2 km/h (1 Bft) O-SO 0.00 h 0.0 UV-I 0 W/m 17.4 C 18.8 C 5.7 km/h (1 Bft)
28.07.2006 03:00 18.4 C 93 % 1013.3 hPa 0.0 l/m 0.7 km/h (0 Bft) O-SO 0.00 h 0.0 UV-I 0 W/m 17.2 C 18.4 C 1.3 km/h (1 Bft)
28.07.2006 04:00 18.0 C 93 % 1012.8 hPa 0.0 l/m 0.9 km/h (0 Bft) O-SO 0.00 h 0.0 UV-I 0 W/m 16.9 C 18.0 C 1.6 km/h (1 Bft)
28.07.2006 05:00 17.4 C 93 % 1012.3 hPa 0.0 l/m 1.1 km/h (0 Bft) O-SO 0.00 h 0.0 UV-I 0 W/m 16.2 C 17.4 C 2.1 km/h (1 Bft)
28.07.2006 06:00 17.4 C 91 % 1012.1 hPa 0.0 l/m 1.8 km/h (1 Bft) O-NO 0.00 h 0.0 UV-I 15 W/m 15.9 C 17.4 C 3.1 km/h (1 Bft)
28.07.2006 07:00 18.0 C 90 % 1012.2 hPa 0.0 l/m 1.9 km/h (1 Bft) O-SO 0.33 h 0.6 UV-I 104 W/m 16.3 C 18.0 C 3.1 km/h (1 Bft)
28.07.2006 08:00 19.9 C 81 % 1012.7 hPa 0.0 l/m 0.2 km/h (0 Bft) O-SO 0.72 h 1.1 UV-I 225 W/m 16.6 C 19.9 C 1.2 km/h (1 Bft)
28.07.2006 09:00 21.4 C 76 % 1013.2 hPa 0.0 l/m 2.2 km/h (1 Bft) N 0.90 h 2.2 UV-I 372 W/m 17.1 C 21.4 C 3.8 km/h (1 Bft)
28.07.2006 10:00 24.3 C 65 % 1013.7 hPa 0.0 l/m 4.4 km/h (1 Bft) N 0.88 h 4.4 UV-I 524 W/m 17.3 C 24.3 C 7.3 km/h (2 Bft)
28.07.2006 11:00 25.0 C 62 % 1013.2 hPa 0.0 l/m 6.3 km/h (2 Bft) N-NW 0.32 h 5.1 UV-I 546 W/m 17.2 C 25.0 C 9.1 km/h (2 Bft)
28.07.2006 12:00 26.0 C 59 % 1012.8 hPa 0.0 l/m 5.6 km/h (1 Bft) N-NW 1.05 h 7.7 UV-I 800 W/m 17.2 C 26.0 C 7.7 km/h (2 Bft)
28.07.2006 13:00 27.0 C 55 % 1012.3 hPa 0.0 l/m 4.5 km/h (1 Bft) N-NW 1.00 h 7.7 UV-I 795 W/m 17.1 C 27.0 C 7.2 km/h (2 Bft)
28.07.2006 14:00 28.6 C 47 % 1011.5 hPa 0.0 l/m 3.9 km/h (1 Bft) W-NW 0.93 h 7.1 UV-I 749 W/m 16.3 C 28.6 C 6.0 km/h (2 Bft)
28.07.2006 15:00 28.9 C 46 % 1010.8 hPa 0.0 l/m 3.6 km/h (1 Bft) W-NW 0.48 h 4.0 UV-I 445 W/m 16.0 C 28.9 C 5.9 km/h (2 Bft)
28.07.2006 16:00 26.0 C 56 % 1011.0 hPa 0.2 l/m 8.6 km/h (2 Bft) W-SW 0.00 h 1.1 UV-I 95 W/m 16.3 C 26.0 C 14.7 km/h (3 Bft)
28.07.2006 17:00 21.1 C 76 % 1011.8 hPa 0.0 l/m 4.2 km/h (1 Bft) S-SO 0.00 h 1.3 UV-I 144 W/m 16.7 C 21.1 C 8.3 km/h (2 Bft)
28.07.2006 18:00 21.5 C 76 % 1011.2 hPa 0.0 l/m 3.2 km/h (1 Bft) W-NW 0.25 h 1.2 UV-I 179 W/m 17.0 C 21.5 C 5.6 km/h (1 Bft)
28.07.2006 19:00 21.8 C 68 % 1010.6 hPa 0.0 l/m 2.8 km/h (1 Bft) S 0.65 h 0.7 UV-I 158 W/m 15.6 C 21.8 C 5.5 km/h (1 Bft)
28.07.2006 20:00 21.0 C 73 % 1010.7 hPa 0.0 l/m 1.1 km/h (0 Bft) S 0.05 h 0.0 UV-I 34 W/m 15.9 C 21.0 C 2.9 km/h (1 Bft)
28.07.2006 21:00 20.3 C 75 % 1011.2 hPa 0.0 l/m 1.3 km/h (1 Bft) SO 0.00 h 0.0 UV-I 0 W/m 15.8 C 20.3 C 2.7 km/h (1 Bft)
28.07.2006 22:00 19.4 C 83 % 1011.0 hPa 0.6 l/m 1.0 km/h (0 Bft) S-SO 0.00 h 0.0 UV-I 0 W/m 16.5 C 19.4 C 2.1 km/h (1 Bft)
28.07.2006 23:00 18.8 C 89 % 1010.9 hPa 0.0 l/m 0.8 km/h (0 Bft) SO 0.00 h 0.0 UV-I 0 W/m 17.0 C 18.8 C 2.6 km/h (1 Bft)
29.07.2006 00:00 19.0 C 87 % 1011.0 hPa 0.0 l/m 2.6 km/h (1 Bft) S-SO 0.00 h 0.0 UV-I 0 W/m 16.8 C 19.0 C 5.1 km/h (1 Bft)
29.07.2006 01:00 19.0 C 85 % 1010.7 hPa 0.0 l/m 3.9 km/h (1 Bft) S 0.00 h 0.0 UV-I 0 W/m 16.3 C 19.0 C 8.3 km/h (2 Bft)
29.07.2006 02:00 18.1 C 88 % 1010.6 hPa 0.0 l/m 4.3 km/h (1 Bft) S-SO 0.00 h 0.0 UV-I 0 W/m 16.0 C 18.1 C 8.8 km/h (2 Bft)
29.07.2006 03:00 18.0 C 89 % 1010.6 hPa 0.4 l/m 1.5 km/h (1 Bft) S 0.00 h 0.0 UV-I 0 W/m 16.2 C 18.0 C 3.9 km/h (1 Bft)
29.07.2006 04:00 17.7 C 92 % 1010.6 hPa 0.0 l/m 1.6 km/h (1 Bft) S 0.00 h 0.0 UV-I 0 W/m 16.4 C 17.7 C 3.8 km/h (1 Bft)
29.07.2006 05:00 17.9 C 92 % 1010.5 hPa 0.0 l/m 1.6 km/h (1 Bft) S-SO 0.00 h 0.0 UV-I 0 W/m 16.5 C 17.9 C 3.8 km/h (1 Bft)
29.07.2006 06:00 17.8 C 92 % 1010.6 hPa 0.0 l/m 2.0 km/h (1 Bft) S 0.00 h 0.0 UV-I 9 W/m 16.5 C 17.8 C 4.8 km/h (1 Bft)
29.07.2006 07:00 18.0 C 92 % 1010.8 hPa 0.2 l/m 1.5 km/h (1 Bft) S 0.00 h 0.0 UV-I 28 W/m 16.7 C 18.0 C 4.0 km/h (1 Bft)
29.07.2006 08:00 18.4 C 91 % 1011.0 hPa 0.0 l/m 1.4 km/h (1 Bft) S-SW 0.00 h 0.7 UV-I 52 W/m 17.0 C 18.4 C 3.4 km/h (1 Bft)
29.07.2006 09:00 19.6 C 87 % 1011.2 hPa 0.0 l/m 2.8 km/h (1 Bft) SW 0.00 h 1.6 UV-I 186 W/m 17.4 C 19.6 C 5.4 km/h (1 Bft)
29.07.2006 10:00 20.7 C 79 % 1011.2 hPa 0.0 l/m 7.1 km/h (2 Bft) W-NW 0.47 h 3.2 UV-I 346 W/m 17.0 C 20.7 C 11.6 km/h (2 Bft)
29.07.2006 11:00 23.0 C 72 % 1011.0 hPa 0.0 l/m 3.9 km/h (1 Bft) W-NW 0.68 h 5.3 UV-I 610 W/m 17.6 C 23.0 C 6.6 km/h (2 Bft)
29.07.2006 12:00 23.2 C 69 % 1011.0 hPa 0.0 l/m 4.2 km/h (1 Bft) W-NW 0.05 h 2.3 UV-I 204 W/m 17.1 C 23.2 C 6.7 km/h (2 Bft)
29.07.2006 13:00 24.6 C 63 % 1010.9 hPa 0.0 l/m 3.1 km/h (1 Bft) W-NW 0.42 h 5.7 UV-I 540 W/m 17.1 C 24.6 C 5.4 km/h (1 Bft)
29.07.2006 14:00 21.8 C 81 % 1011.1 hPa 7.2 l/m 2.6 km/h (1 Bft) W 0.00 h 1.6 UV-I 147 W/m 18.3 C 21.8 C 4.7 km/h (1 Bft)
29.07.2006 15:00 21.0 C 91 % 1011.3 hPa 0.0 l/m 1.6 km/h (1 Bft) N-NW 0.13 h 2.4 UV-I 211 W/m 19.4 C 21.0 C 2.9 km/h (1 Bft)
29.07.2006 16:00 23.1 C 81 % 1011.1 hPa 0.0 l/m 2.4 km/h (1 Bft) W-NW 1.00 h 4.0 UV-I 618 W/m 19.6 C 23.1 C 4.1 km/h (1 Bft)
29.07.2006 17:00 25.7 C 60 % 1010.4 hPa 0.0 l/m 1.7 km/h (1 Bft) W-NW 0.97 h 2.5 UV-I 464 W/m 17.2 C 25.7 C 3.4 km/h (1 Bft)
29.07.2006 18:00 26.5 C 52 % 1010.4 hPa 0.0 l/m 2.9 km/h (1 Bft) W-NW 0.90 h 1.2 UV-I 331 W/m 15.8 C 26.5 C 4.6 km/h (1 Bft)
29.07.2006 19:00 26.2 C 59 % 1010.6 hPa 0.0 l/m 5.0 km/h (1 Bft) W-NW 1.00 h 0.6 UV-I 198 W/m 17.5 C 26.2 C 7.4 km/h (2 Bft)
29.07.2006 20:00 24.6 C 60 % 1011.1 hPa 0.0 l/m 3.4 km/h (1 Bft) W-NW 0.57 h 0.0 UV-I 51 W/m 16.4 C 24.6 C 5.6 km/h (1 Bft)
29.07.2006 21:00 22.8 C 69 % 1011.8 hPa 0.0 l/m 1.2 km/h (1 Bft) NW 0.00 h 0.0 UV-I 0 W/m 16.8 C 22.8 C 2.7 km/h (1 Bft)
29.07.2006 22:00 21.8 C 74 % 1012.4 hPa 0.0 l/m 1.9 km/h (1 Bft) N 0.00 h 0.0 UV-I 0 W/m 16.9 C 21.8 C 3.1 km/h (1 Bft)
29.07.2006 23:00 20.1 C 82 % 1012.5 hPa 0.0 l/m 1.4 km/h (1 Bft) O 0.00 h 0.0 UV-I 0 W/m 17.0 C 20.1 C 2.4 km/h (1 Bft)
30.07.2006 00:00 18.9 C 88 % 1012.9 hPa 0.0 l/m 2.2 km/h (1 Bft) O-SO 0.00 h 0.0 UV-I 0 W/m 16.8 C 18.9 C 3.6 km/h (1 Bft)
30.07.2006 01:00 19.0 C 87 % 1012.9 hPa 0.0 l/m 1.5 km/h (1 Bft) O 0.00 h 0.0 UV-I 0 W/m 16.8 C 19.0 C 2.5 km/h (1 Bft)
30.07.2006 02:00 18.6 C 90 % 1013.0 hPa 0.0 l/m 1.5 km/h (1 Bft) O 0.00 h 0.0 UV-I 0 W/m 16.9 C 18.6 C 2.3 km/h (1 Bft)
30.07.2006 03:00 18.3 C 91 % 1013.2 hPa 0.0 l/m 0.9 km/h (0 Bft) O 0.00 h 0.0 UV-I 0 W/m 16.8 C 18.3 C 1.4 km/h (1 Bft)
30.07.2006 04:00 18.0 C 92 % 1013.1 hPa 0.0 l/m 0.8 km/h (0 Bft) O 0.00 h 0.0 UV-I 0 W/m 16.7 C 18.0 C 1.7 km/h (1 Bft)
30.07.2006 05:00 17.3 C 94 % 1013.0 hPa 0.0 l/m 0.9 km/h (0 Bft) O 0.00 h 0.0 UV-I 0 W/m 16.2 C 17.3 C 1.4 km/h (1 Bft)
30.07.2006 06:00 16.8 C 95 % 1013.3 hPa 0.0 l/m 1.3 km/h (1 Bft) O 0.00 h 0.0 UV-I 19 W/m 16.0 C 16.8 C 2.4 km/h (1 Bft)
30.07.2006 07:00 17.2 C 96 % 1013.6 hPa 0.0 l/m 2.2 km/h (1 Bft) O-SO 0.20 h 0.6 UV-I 88 W/m 16.5 C 17.2 C 3.5 km/h (1 Bft)
30.07.2006 08:00 19.2 C 89 % 1013.6 hPa 0.0 l/m 0.9 km/h (0 Bft) S-SO 1.00 h 1.2 UV-I 301 W/m 17.3 C 19.2 C 2.1 km/h (1 Bft)
30.07.2006 09:00 21.0 C 82 % 1013.6 hPa 0.0 l/m 1.4 km/h (1 Bft) W-SW 1.00 h 2.5 UV-I 426 W/m 17.9 C 21.0 C 2.9 km/h (1 Bft)
30.07.2006 10:00 23.5 C 70 % 1013.5 hPa 0.0 l/m 2.1 km/h (1 Bft) W-NW 1.00 h 4.4 UV-I 588 W/m 17.7 C 23.5 C 3.6 km/h (1 Bft)
30.07.2006 11:00 25.5 C 60 % 1013.6 hPa 0.0 l/m 2.1 km/h (1 Bft) W-NW 1.00 h 6.1 UV-I 677 W/m 17.1 C 25.5 C 3.7 km/h (1 Bft)
30.07.2006 12:00 27.7 C 50 % 1013.4 hPa 0.0 l/m 2.8 km/h (1 Bft) W 1.00 h 7.7 UV-I 794 W/m 16.2 C 27.7 C 4.9 km/h (1 Bft)
30.07.2006 13:00 28.7 C 44 % 1012.9 hPa 0.0 l/m 3.3 km/h (1 Bft) O-SO 1.00 h 8.0 UV-I 793 W/m 15.1 C 28.7 C 5.5 km/h (1 Bft)
30.07.2006 14:00 29.9 C 41 % 1012.6 hPa 0.0 l/m 3.7 km/h (1 Bft) N-NW 1.00 h 7.5 UV-I 789 W/m 15.0 C 29.9 C 6.1 km/h (2 Bft)
30.07.2006 15:00 30.4 C 39 % 1012.3 hPa 0.0 l/m 4.6 km/h (1 Bft) W-NW 0.93 h 5.8 UV-I 658 W/m 14.6 C 30.4 C 7.1 km/h (2 Bft)
30.07.2006 16:00 31.1 C 37 % 1012.1 hPa 0.0 l/m 5.3 km/h (1 Bft) W-NW 1.00 h 4.4 UV-I 626 W/m 14.4 C 31.1 C 8.1 km/h (2 Bft)
30.07.2006 17:00 30.8 C 31 % 1012.1 hPa 0.0 l/m 8.5 km/h (2 Bft) W-NW 0.52 h 2.4 UV-I 362 W/m 11.7 C 30.8 C 12.5 km/h (3 Bft)
30.07.2006 18:00 29.2 C 34 % 1012.4 hPa 0.0 l/m 9.8 km/h (2 Bft) W-NW 0.00 h 0.8 UV-I 122 W/m 11.8 C 29.2 C 14.7 km/h (3 Bft)
30.07.2006 19:00 28.8 C 35 % 1012.9 hPa 0.0 l/m 12.6 km/h (3 Bft) W-NW 0.57 h 0.5 UV-I 146 W/m 11.8 C 28.8 C 18.5 km/h (3 Bft)
30.07.2006 20:00 27.6 C 40 % 1013.1 hPa 0.0 l/m 9.8 km/h (2 Bft) W-NW 0.15 h 0.0 UV-I 27 W/m 12.6 C 27.6 C 14.2 km/h (3 Bft)
30.07.2006 21:00 26.3 C 47 % 1013.6 hPa 0.0 l/m 5.2 km/h (1 Bft) W-NW 0.00 h 0.0 UV-I 10 W/m 13.9 C 26.3 C 8.1 km/h (2 Bft)
30.07.2006 22:00 24.7 C 54 % 1014.3 hPa 0.0 l/m 2.0 km/h (1 Bft) O 0.00 h 0.0 UV-I 0 W/m 14.8 C 24.7 C 3.7 km/h (1 Bft)
30.07.2006 23:00 23.3 C 61 % 1014.2 hPa 0.0 l/m 0.9 km/h (0 Bft) O 0.00 h 0.0 UV-I 0 W/m 15.3 C 23.3 C 2.1 km/h (1 Bft)
Min-Datum _ 30.07.06 25.07.06 28.07.06 - 24.07.06 - - - - 25.07.06 30.07.06 24.07.06
_ Min-Zeit 05:57 17:10 20:00 - 00:00 - - - - 17:10 05:57 00:03
Minimum _ 16.7 C 19 % 1010.2 hPa - 0.0 km/h (0 Bft) - - - - 7.3 C 16.7 C 0.0 km/h (0 Bft)
Max-Datum _ 25.07.06 30.07.06 24.07.06 29.07.06 28.07.06 - 28.07.06 29.07.06 29.07.06 29.07.06 25.07.06 28.07.06
_ Max-Zeit 16:23 06:08 00:30 14:19 16:26 - 12:56 13:18 11:57 17:01 16:23 16:30
Maximum _ 34.9 C 96 % 1018.9 hPa 7.2 l/m 24.1 km/h
W-SW (4 Bft)
- 1.00 h 8.5 UV-I 984 W/m 20.9 C 34.9 C 41.5 km/h
W-NW (6 Bft)
Durchschnitt _ 24.0 C 64 % 1014.3 hPa #11.4 l/m 3.1 km/h (1 Bft) O-SO #67:38 h 3.5 UV-I 374 W/m 15.5 C 24.0 C 5.3 km/h (1 Bft)
© Kaiko 2006